Accueil
METAR-TAF:

METAR-TAF

Aéroports :

Bauru, São Paulo, Brésil

latitude: 22-19S, longitude: 049-04W, altitude: 590 m

Observation

Le bulletin a été fait il y a 9 heures et 38 minutes, à 14:00 UTC
Vent 5 kt de nord/nord-est
Température 25°C
Humidité 54%
Pression 1020 hPa
Visibilité 10 km ou plus
pas de nuages en-dessous de 1500 mètres et pas de cumulonimbus.

METAR: SBBU 231400Z 02005KT CAVOK 25/15 Q1020

Heure: 20:38 (23:38 UTC)

Prévision

Le bulletin a été fait il y a 8 heures et 38 minutes, à 15:00 UTC
Prévision valable du 23 à 18 UTC au 24 à 06 UTC
Vent 7 kt de nord/nord-ouest
Visibilité 10 km ou plus
pas de nuages en-dessous de 1500 mètres et pas de cumulonimbus.
Evoluant progressivement
du 23 à 20 UTC au 23 à 22 UTC
Vent 7 kt de est

TAF: SBBU 231500Z 2318/2406 34007KT CAVOK TX30/2318Z TN22/2406Z BECMG 2320/2322 08007KT RMK PDJ

Observations et prévisions météorologiques de plus de 4000 aéroports (messages METAR et TAF).

Les stations disponibles sont représentées par des disques jaunes et rouges sur la carte.

Passer la souris dessus pour voir le nom de la station.

Cliquer dessus pour voir les observations et prévisions météorologiques.

Pour changer de carte: cliquez sur les boutons verts avec une croix noire pour zoomer, sur le bouton vert avec un tiret pour effectuer un zoom arrière, ou sur les flèches vertes pour les cartes adjacentes.


METAR-TAF: